Time,TemperatureF,DewpointF,PressureIn,WindDirection,WindDirectionDegrees,WindSpeedMPH,WindSpeedGustMPH,Humidity,HourlyPrecipIn,Conditions,Clouds,dailyrainin,SoftwareType,DateUTC
2013-09-04 00:04:00,67.8,61.0,29.80,NNE,15,0.0,0.0,79,0.00,,,0.00,meteobridge,2013-09-04 06:04:00,
2013-09-04 00:09:00,68.0,61.5,29.80,NNE,15,0.0,0.0,80,0.00,,,0.00,meteobridge,2013-09-04 06:09:00,
2013-09-04 00:14:00,67.5,60.4,29.80,NNE,15,0.0,0.9,78,0.00,,,0.00,meteobridge,2013-09-04 06:14:00,
2013-09-04 00:19:00,67.3,61.2,29.80,NNE,15,0.0,0.0,81,0.00,,,0.00,meteobridge,2013-09-04 06:19:00,
2013-09-04 00:24:00,67.3,61.0,29.81,NNE,15,0.0,0.0,80,0.00,,,0.00,meteobridge,2013-09-04 06:24:00,
2013-09-04 00:29:00,67.3,61.2,29.81,NNE,15,0.0,0.9,81,0.00,,,0.00,meteobridge,2013-09-04 06:29:00,
2013-09-04 00:34:00,67.3,61.0,29.82,NNE,15,0.0,0.0,80,0.00,,,0.00,meteobridge,2013-09-04 06:34:00,
2013-09-04 00:39:00,67.5,60.8,29.82,NNE,15,0.0,0.0,79,0.00,,,0.00,meteobridge,2013-09-04 06:39:00,
2013-09-04 00:45:00,67.3,60.6,29.82,NNE,15,0.0,0.0,79,0.00,,,0.00,meteobridge,2013-09-04 06:45:00,
2013-09-04 00:50:00,67.8,58.8,29.82,NNE,15,0.0,0.0,73,0.00,,,0.00,meteobridge,2013-09-04 06:50:00,
2013-09-04 00:55:00,68.2,59.2,29.83,NNE,15,0.0,0.9,73,0.00,,,0.00,meteobridge,2013-09-04 06:55:00,
2013-09-04 01:00:00,68.0,59.4,29.83,NNE,15,0.0,0.9,74,0.00,,,0.00,meteobridge,2013-09-04 07:00:00,
2013-09-04 01:05:00,68.0,59.0,29.82,NNE,15,0.0,0.0,73,0.00,,,0.00,meteobridge,2013-09-04 07:05:00,
2013-09-04 01:10:00,68.2,60.3,29.82,NNE,15,0.0,0.0,76,0.00,,,0.00,meteobridge,2013-09-04 07:10:00,
2013-09-04 01:15:00,68.2,60.3,29.82,NNE,15,0.0,0.0,76,0.00,,,0.00,meteobridge,2013-09-04 07:15:00,
2013-09-04 01:20:00,68.2,60.3,29.83,NNE,15,0.0,0.0,76,0.00,,,0.00,meteobridge,2013-09-04 07:20:00,
2013-09-04 01:25:00,68.4,60.4,29.83,NNE,15,0.0,0.0,76,0.00,,,0.00,meteobridge,2013-09-04 07:25:00,
2013-09-04 01:31:00,68.2,60.6,29.83,NNE,15,0.0,0.0,77,0.00,,,0.00,meteobridge,2013-09-04 07:31:00,
2013-09-04 01:36:00,67.6,60.3,29.83,NNE,15,0.0,0.0,77,0.00,,,0.00,meteobridge,2013-09-04 07:36:00,
2013-09-04 01:41:00,67.6,60.6,29.83,NNE,15,0.0,0.0,78,0.00,,,0.00,meteobridge,2013-09-04 07:41:00,
2013-09-04 01:46:00,67.6,59.7,29.83,NNE,15,0.0,0.9,76,0.00,,,0.00,meteobridge,2013-09-04 07:46:00,
2013-09-04 01:51:00,67.5,59.5,29.83,NNE,15,0.0,0.0,76,0.00,,,0.00,meteobridge,2013-09-04 07:51:00,
2013-09-04 01:56:00,67.3,59.9,29.83,NNE,15,0.0,0.0,77,0.00,,,0.00,meteobridge,2013-09-04 07:56:00,
2013-09-04 02:01:00,67.3,60.6,29.83,NNE,15,0.0,0.0,79,0.00,,,0.00,meteobridge,2013-09-04 08:01:00,
2013-09-04 02:06:00,66.7,59.7,29.83,NNE,15,0.0,0.0,78,0.00,,,0.00,meteobridge,2013-09-04 08:06:00,
2013-09-04 02:12:00,66.7,59.7,29.83,NNE,15,0.0,0.0,78,0.00,,,0.00,meteobridge,2013-09-04 08:12:00,
2013-09-04 02:17:00,66.7,60.4,29.83,NNE,15,0.0,0.0,80,0.00,,,0.00,meteobridge,2013-09-04 08:17:00,
2013-09-04 02:22:00,66.7,60.1,29.83,NNE,15,0.0,0.0,79,0.00,,,0.00,meteobridge,2013-09-04 08:22:00,
2013-09-04 02:27:00,66.7,59.0,29.83,NNE,15,0.0,0.0,76,0.00,,,0.00,meteobridge,2013-09-04 08:27:00,
2013-09-04 02:32:00,66.9,57.9,29.83,NNE,15,0.0,0.0,73,0.00,,,0.00,meteobridge,2013-09-04 08:32:00,
2013-09-04 02:37:00,67.1,58.8,29.83,NNE,15,0.0,0.0,75,0.00,,,0.00,meteobridge,2013-09-04 08:37:00,
2013-09-04 02:42:00,67.3,59.0,29.83,NNE,15,0.0,0.0,75,0.00,,,0.00,meteobridge,2013-09-04 08:42:00,
2013-09-04 02:48:00,66.7,59.4,29.84,NNE,15,0.0,0.0,77,0.00,,,0.00,meteobridge,2013-09-04 08:48:00,
2013-09-04 02:53:00,66.4,59.7,29.84,NNE,15,0.0,0.0,79,0.00,,,0.00,meteobridge,2013-09-04 08:53:00,
2013-09-04 02:58:00,66.4,59.7,29.83,NNE,15,0.0,0.0,79,0.00,,,0.00,meteobridge,2013-09-04 08:58:00,
2013-09-04 03:03:00,66.4,59.7,29.83,NNE,15,0.0,0.0,79,0.00,,,0.00,meteobridge,2013-09-04 09:03:00,
2013-09-04 03:09:00,66.6,59.5,29.84,NNE,15,0.0,0.0,78,0.00,,,0.00,meteobridge,2013-09-04 09:09:00,
2013-09-04 03:14:00,66.6,59.9,29.84,NNE,15,0.0,0.0,79,0.00,,,0.00,meteobridge,2013-09-04 09:14:00,
2013-09-04 03:19:00,66.0,60.1,29.84,NNE,15,0.0,0.0,81,0.00,,,0.00,meteobridge,2013-09-04 09:19:00,
2013-09-04 03:24:00,65.8,59.5,29.84,NNE,15,0.0,0.0,80,0.00,,,0.00,meteobridge,2013-09-04 09:24:00,
2013-09-04 03:29:00,65.8,60.3,29.84,NNE,15,0.0,0.0,82,0.00,,,0.00,meteobridge,2013-09-04 09:29:00,
2013-09-04 03:34:00,65.7,59.4,29.84,NNE,15,0.0,0.9,80,0.00,,,0.00,meteobridge,2013-09-04 09:34:00,
2013-09-04 03:39:00,65.8,59.2,29.84,NNE,15,0.0,0.9,79,0.00,,,0.00,meteobridge,2013-09-04 09:39:00,
2013-09-04 03:45:00,65.8,59.2,29.84,SE,130,0.9,0.9,79,0.00,,,0.00,meteobridge,2013-09-04 09:45:00,
2013-09-04 03:50:00,66.4,59.0,29.85,East,91,0.0,0.0,77,0.00,,,0.00,meteobridge,2013-09-04 09:50:00,
2013-09-04 03:55:00,66.0,59.4,29.85,ESE,121,0.0,0.0,79,0.00,,,0.00,meteobridge,2013-09-04 09:55:00,
2013-09-04 04:00:00,65.8,58.8,29.85,ESE,121,0.0,0.0,78,0.00,,,0.00,meteobridge,2013-09-04 10:00:00,
2013-09-04 04:05:00,65.8,58.5,29.85,SSE,150,0.0,0.9,77,0.00,,,0.00,meteobridge,2013-09-04 10:05:00,
2013-09-04 04:10:00,66.0,57.9,29.85,SSE,157,0.0,0.9,75,0.00,,,0.00,meteobridge,2013-09-04 10:10:00,
2013-09-04 04:16:00,65.8,58.5,29.85,SSE,157,0.0,0.0,77,0.00,,,0.00,meteobridge,2013-09-04 10:16:00,
2013-09-04 04:21:00,65.5,58.5,29.85,SSE,157,0.0,0.0,78,0.00,,,0.00,meteobridge,2013-09-04 10:21:00,
2013-09-04 04:26:00,65.5,58.5,29.85,SSE,157,0.0,0.0,78,0.00,,,0.00,meteobridge,2013-09-04 10:26:00,
2013-09-04 04:31:00,65.3,58.3,29.85,SSE,157,0.0,0.0,78,0.00,,,0.00,meteobridge,2013-09-04 10:31:00,
2013-09-04 04:36:00,64.8,58.8,29.85,SSE,157,0.0,0.0,81,0.00,,,0.00,meteobridge,2013-09-04 10:36:00,
2013-09-04 04:42:00,64.6,58.3,29.85,SSE,157,0.0,0.0,80,0.00,,,0.00,meteobridge,2013-09-04 10:42:00,
2013-09-04 04:47:00,64.0,58.5,29.85,SSE,157,0.0,0.0,82,0.00,,,0.00,meteobridge,2013-09-04 10:47:00,
2013-09-04 04:52:00,63.9,58.6,29.85,SSE,157,0.9,0.9,83,0.00,,,0.00,meteobridge,2013-09-04 10:52:00,
2013-09-04 04:57:00,64.0,58.5,29.86,SSE,157,0.0,0.0,82,0.00,,,0.00,meteobridge,2013-09-04 10:57:00,
2013-09-04 05:02:00,64.2,57.9,29.86,SSE,157,0.0,0.0,80,0.00,,,0.00,meteobridge,2013-09-04 11:02:00,
2013-09-04 05:08:00,64.0,57.0,29.86,SSE,157,0.0,0.0,78,0.00,,,0.00,meteobridge,2013-09-04 11:08:00,
2013-09-04 05:13:00,63.9,57.6,29.86,SSE,157,0.0,0.0,80,0.00,,,0.00,meteobridge,2013-09-04 11:13:00,
2013-09-04 05:18:00,63.7,57.7,29.86,SSE,157,0.0,0.0,81,0.00,,,0.00,meteobridge,2013-09-04 11:18:00,
2013-09-04 05:23:00,63.5,57.6,29.86,SSE,157,0.0,0.0,81,0.00,,,0.00,meteobridge,2013-09-04 11:23:00,
2013-09-04 05:28:00,63.3,57.0,29.86,SSE,157,0.0,0.0,80,0.00,,,0.00,meteobridge,2013-09-04 11:28:00,
2013-09-04 05:33:00,63.5,57.6,29.86,SSE,157,0.0,0.0,81,0.00,,,0.00,meteobridge,2013-09-04 11:33:00,
2013-09-04 05:38:00,63.3,57.4,29.86,SSE,157,0.0,0.0,81,0.00,,,0.00,meteobridge,2013-09-04 11:38:00,
2013-09-04 05:43:00,63.1,57.2,29.86,SSE,157,0.0,0.0,81,0.00,,,0.00,meteobridge,2013-09-04 11:43:00,
2013-09-04 05:48:00,63.0,56.7,29.86,SSE,157,0.0,0.9,80,0.00,,,0.00,meteobridge,2013-09-04 11:48:00,
2013-09-04 05:53:00,63.0,56.7,29.86,SSE,157,0.0,0.9,80,0.00,,,0.00,meteobridge,2013-09-04 11:53:00,
2013-09-04 05:58:00,63.0,56.3,29.86,SSE,157,0.0,0.0,79,0.00,,,0.00,meteobridge,2013-09-04 11:58:00,
2013-09-04 06:03:00,63.0,55.6,29.87,SSE,157,0.0,0.9,77,0.00,,,0.00,meteobridge,2013-09-04 12:03:00,
2013-09-04 06:09:00,63.1,55.4,29.87,SSE,157,0.0,2.0,76,0.00,,,0.00,meteobridge,2013-09-04 12:09:00,
2013-09-04 06:14:00,63.1,55.8,29.87,SSE,157,0.0,0.0,77,0.00,,,0.00,meteobridge,2013-09-04 12:14:00,
2013-09-04 06:19:00,63.1,55.8,29.88,SSE,157,0.0,0.9,77,0.00,,,0.00,meteobridge,2013-09-04 12:19:00,
2013-09-04 06:24:00,63.0,55.9,29.88,SSE,157,0.0,0.0,78,0.00,,,0.00,meteobridge,2013-09-04 12:24:00,
2013-09-04 06:29:00,63.0,56.3,29.88,SSE,157,0.0,0.0,79,0.00,,,0.00,meteobridge,2013-09-04 12:29:00,
2013-09-04 06:35:00,62.8,56.1,29.88,SSE,157,0.0,0.0,79,0.00,,,0.00,meteobridge,2013-09-04 12:35:00,
2013-09-04 06:40:00,62.6,55.2,29.88,SSE,157,0.0,0.0,77,0.00,,,0.00,meteobridge,2013-09-04 12:40:00,
2013-09-04 06:45:00,62.8,55.0,29.88,SSE,157,0.0,0.0,76,0.00,,,0.00,meteobridge,2013-09-04 12:45:00,
2013-09-04 06:50:00,62.8,55.8,29.89,SSE,157,0.0,0.0,78,0.00,,,0.00,meteobridge,2013-09-04 12:50:00,
2013-09-04 06:55:00,62.8,55.8,29.89,SSE,157,0.0,0.0,78,0.00,,,0.00,meteobridge,2013-09-04 12:55:00,
2013-09-04 07:00:00,63.1,55.4,29.89,SSE,157,0.0,0.0,76,0.00,,,0.00,meteobridge,2013-09-04 13:00:00,
2013-09-04 07:05:00,63.1,55.4,29.89,SSE,157,0.0,0.9,76,0.00,,,0.00,meteobridge,2013-09-04 13:05:00,
2013-09-04 07:10:00,63.3,55.6,29.89,SSE,157,0.0,0.9,76,0.00,,,0.00,meteobridge,2013-09-04 13:10:00,
2013-09-04 07:15:00,63.7,54.9,29.89,SSE,157,0.0,0.0,73,0.00,,,0.00,meteobridge,2013-09-04 13:15:00,
2013-09-04 07:20:00,64.6,53.4,29.89,SSE,157,0.0,0.9,67,0.00,,,0.00,meteobridge,2013-09-04 13:20:00,
2013-09-04 07:25:00,65.1,53.4,29.89,SSE,157,0.0,0.9,66,0.00,,,0.00,meteobridge,2013-09-04 13:25:00,
2013-09-04 07:30:00,66.2,53.2,29.89,SSE,157,0.0,0.9,63,0.00,,,0.00,meteobridge,2013-09-04 13:30:00,
2013-09-04 07:35:00,66.9,52.5,29.90,SSE,152,0.0,0.0,60,0.00,,,0.00,meteobridge,2013-09-04 13:35:00,
2013-09-04 07:41:00,67.8,54.3,29.90,SSE,148,0.0,0.9,62,0.00,,,0.00,meteobridge,2013-09-04 13:41:00,
2013-09-04 07:46:00,68.4,52.0,29.90,SE,142,0.0,0.9,56,0.00,,,0.00,meteobridge,2013-09-04 13:46:00,
2013-09-04 07:51:00,69.1,52.7,29.90,SE,142,0.0,0.9,56,0.00,,,0.00,meteobridge,2013-09-04 13:51:00,
2013-09-04 07:56:00,69.4,52.5,29.90,SE,142,0.0,0.0,55,0.00,,,0.00,meteobridge,2013-09-04 13:56:00,
2013-09-04 08:01:00,70.9,52.9,29.90,SE,142,0.0,0.0,53,0.00,,,0.00,meteobridge,2013-09-04 14:01:00,
2013-09-04 08:06:00,71.2,53.8,29.90,SE,142,0.0,0.9,54,0.00,,,0.00,meteobridge,2013-09-04 14:06:00,
2013-09-04 08:11:00,71.8,52.7,29.90,SE,142,0.0,0.0,51,0.00,,,0.00,meteobridge,2013-09-04 14:11:00,
2013-09-04 08:16:00,72.7,52.3,29.91,SE,142,0.9,2.0,49,0.00,,,0.00,meteobridge,2013-09-04 14:16:00,
2013-09-04 08:21:00,72.9,51.4,29.91,SE,142,0.0,0.9,47,0.00,,,0.00,meteobridge,2013-09-04 14:21:00,
2013-09-04 08:26:00,72.9,50.9,29.91,SE,142,0.9,0.9,46,0.00,,,0.00,meteobridge,2013-09-04 14:26:00,
2013-09-04 08:31:00,73.2,50.5,29.91,SSE,162,2.0,2.0,45,0.00,,,0.00,meteobridge,2013-09-04 14:31:00,
2013-09-04 08:36:00,73.6,51.4,29.91,SSE,153,0.9,4.0,46,0.00,,,0.00,meteobridge,2013-09-04 14:36:00,
2013-09-04 08:41:00,73.8,50.5,29.91,SSE,159,0.0,2.9,44,0.00,,,0.00,meteobridge,2013-09-04 14:41:00,
2013-09-04 08:46:00,73.9,51.3,29.91,SSW,205,0.9,2.9,45,0.00,,,0.00,meteobridge,2013-09-04 14:46:00,
2013-09-04 08:51:00,74.1,50.2,29.91,South,185,0.0,2.0,43,0.00,,,0.00,meteobridge,2013-09-04 14:51:00,
2013-09-04 08:56:00,74.5,50.5,29.91,SSE,166,2.0,4.0,43,0.00,,,0.00,meteobridge,2013-09-04 14:56:00,
2013-09-04 09:01:00,74.7,50.7,29.91,SSE,153,2.9,4.0,43,0.00,,,0.00,meteobridge,2013-09-04 15:01:00,
2013-09-04 09:07:00,74.8,48.9,29.91,South,187,0.9,6.0,40,0.00,,,0.00,meteobridge,2013-09-04 15:07:00,
2013-09-04 09:12:00,75.2,49.8,29.92,South,184,0.9,4.9,41,0.00,,,0.00,meteobridge,2013-09-04 15:12:00,
2013-09-04 09:17:00,75.4,50.7,29.91,SSE,157,2.0,6.0,42,0.00,,,0.00,meteobridge,2013-09-04 15:17:00,
2013-09-04 09:22:00,75.6,50.2,29.92,South,186,4.0,4.9,41,0.00,,,0.00,meteobridge,2013-09-04 15:22:00,
2013-09-04 09:27:00,75.9,50.5,29.92,SSE,161,0.0,6.0,41,0.00,,,0.00,meteobridge,2013-09-04 15:27:00,
2013-09-04 09:32:00,76.5,48.9,29.92,SSE,153,2.0,2.9,38,0.00,,,0.00,meteobridge,2013-09-04 15:32:00,
2013-09-04 09:37:00,76.6,49.8,29.92,SE,142,2.0,4.0,39,0.00,,,0.00,meteobridge,2013-09-04 15:37:00,
2013-09-04 09:42:00,77.4,49.8,29.92,ESE,119,4.9,4.9,38,0.00,,,0.00,meteobridge,2013-09-04 15:42:00,
2013-09-04 09:47:00,77.7,49.5,29.92,SE,136,6.0,6.9,37,0.00,,,0.00,meteobridge,2013-09-04 15:47:00,
2013-09-04 09:52:00,78.1,49.6,29.92,SE,138,0.9,6.0,37,0.00,,,0.00,meteobridge,2013-09-04 15:52:00,
2013-09-04 09:57:00,78.4,49.3,29.92,SW,226,0.9,6.0,36,0.00,,,0.00,meteobridge,2013-09-04 15:57:00,
2013-09-04 10:02:00,79.0,48.2,29.92,SSE,163,2.9,6.9,34,0.00,,,0.00,meteobridge,2013-09-04 16:02:00,
2013-09-04 10:07:00,79.2,48.4,29.92,SSE,153,0.9,2.9,34,0.00,,,0.00,meteobridge,2013-09-04 16:07:00,
2013-09-04 10:12:00,79.2,49.8,29.92,SW,214,2.9,6.0,36,0.00,,,0.00,meteobridge,2013-09-04 16:12:00,
2013-09-04 10:17:00,79.5,49.5,29.93,SSW,203,4.9,4.9,35,0.00,,,0.00,meteobridge,2013-09-04 16:17:00,
2013-09-04 10:22:00,79.9,48.9,29.93,SE,142,2.0,6.0,34,0.00,,,0.00,meteobridge,2013-09-04 16:22:00,
2013-09-04 10:27:00,80.2,49.3,29.92,SSE,152,2.0,6.0,34,0.00,,,0.00,meteobridge,2013-09-04 16:27:00,
2013-09-04 10:32:00,80.4,47.8,29.92,SE,137,4.0,8.9,32,0.00,,,0.00,meteobridge,2013-09-04 16:32:00,
2013-09-04 10:37:00,80.8,49.8,29.92,SE,142,4.9,8.9,34,0.00,,,0.00,meteobridge,2013-09-04 16:37:00,
2013-09-04 10:42:00,81.0,47.5,29.92,SSW,193,2.9,8.9,31,0.00,,,0.00,meteobridge,2013-09-04 16:42:00,
2013-09-04 10:47:00,81.0,49.1,29.92,SSE,159,6.0,8.1,33,0.00,,,0.00,meteobridge,2013-09-04 16:47:00,
2013-09-04 10:52:00,80.8,48.2,29.91,SSE,149,4.0,8.1,32,0.00,,,0.00,meteobridge,2013-09-04 16:52:00,
2013-09-04 10:57:00,81.1,48.6,29.91,SW,221,4.9,8.9,32,0.00,,,0.00,meteobridge,2013-09-04 16:57:00,
2013-09-04 11:03:00,82.0,48.4,29.91,SSE,148,2.9,8.1,31,0.00,,,0.00,meteobridge,2013-09-04 17:03:00,
2013-09-04 11:08:00,81.5,47.1,29.91,SE,141,4.0,6.9,30,0.00,,,0.00,meteobridge,2013-09-04 17:08:00,
2013-09-04 11:13:00,81.9,48.2,29.91,SSW,211,2.9,11.0,31,0.00,,,0.00,meteobridge,2013-09-04 17:13:00,
2013-09-04 11:18:00,82.0,49.3,29.91,SSW,208,4.0,6.9,32,0.00,,,0.00,meteobridge,2013-09-04 17:18:00,
2013-09-04 11:23:00,82.0,48.4,29.91,SSE,159,2.9,6.9,31,0.00,,,0.00,meteobridge,2013-09-04 17:23:00,
2013-09-04 11:28:00,82.0,48.4,29.91,South,169,6.9,6.9,31,0.00,,,0.00,meteobridge,2013-09-04 17:28:00,
2013-09-04 11:33:00,82.0,47.5,29.91,SW,232,2.9,8.1,30,0.00,,,0.00,meteobridge,2013-09-04 17:33:00,
2013-09-04 11:38:00,82.8,48.2,29.91,SSE,165,0.0,6.9,30,0.00,,,0.00,meteobridge,2013-09-04 17:38:00,
2013-09-04 11:43:00,82.6,48.0,29.90,WSW,241,0.0,6.0,30,0.00,,,0.00,meteobridge,2013-09-04 17:43:00,
2013-09-04 11:48:00,83.7,49.8,29.90,SE,136,4.9,8.9,31,0.00,,,0.00,meteobridge,2013-09-04 17:48:00,
2013-09-04 11:53:00,83.5,48.7,29.90,South,169,0.9,6.0,30,0.00,,,0.00,meteobridge,2013-09-04 17:53:00,
2013-09-04 11:58:00,84.4,47.7,29.89,SW,227,2.0,6.9,28,0.00,,,0.00,meteobridge,2013-09-04 17:58:00,
2013-09-04 12:03:00,83.8,48.2,29.89,SSW,203,2.0,6.9,29,0.00,,,0.00,meteobridge,2013-09-04 18:03:00,
2013-09-04 12:08:00,83.7,48.0,29.89,SE,134,2.9,4.0,29,0.00,,,0.00,meteobridge,2013-09-04 18:08:00,
2013-09-04 12:13:00,84.2,47.5,29.89,SSW,203,2.0,6.9,28,0.00,,,0.00,meteobridge,2013-09-04 18:13:00,
2013-09-04 12:18:00,84.2,47.5,29.88,South,171,0.0,2.0,28,0.00,,,0.00,meteobridge,2013-09-04 18:18:00,
2013-09-04 12:23:00,84.7,50.7,29.88,WSW,246,2.0,2.9,31,0.00,,,0.00,meteobridge,2013-09-04 18:23:00,
2013-09-04 12:28:00,84.7,49.8,29.88,SSE,163,0.9,6.0,30,0.00,,,0.00,meteobridge,2013-09-04 18:28:00,
2013-09-04 12:33:00,84.9,49.1,29.88,WSW,245,0.9,2.9,29,0.00,,,0.00,meteobridge,2013-09-04 18:33:00,
2013-09-04 12:38:00,85.5,52.2,29.88,WSW,238,4.0,4.9,32,0.00,,,0.00,meteobridge,2013-09-04 18:38:00,
2013-09-04 12:43:00,85.6,48.7,29.88,South,171,2.0,4.9,28,0.00,,,0.00,meteobridge,2013-09-04 18:43:00,
2013-09-04 12:48:00,86.0,49.1,29.87,SW,236,2.9,6.9,28,0.00,,,0.00,meteobridge,2013-09-04 18:48:00,
2013-09-04 12:54:00,85.8,50.7,29.87,South,170,0.9,4.0,30,0.00,,,0.00,meteobridge,2013-09-04 18:54:00,
2013-09-04 12:59:00,85.8,50.7,29.87,SW,217,4.0,4.0,30,0.00,,,0.00,meteobridge,2013-09-04 18:59:00,
2013-09-04 13:04:00,85.6,50.7,29.86,SSW,213,4.0,4.0,30,0.00,,,0.00,meteobridge,2013-09-04 19:04:00,
2013-09-04 13:09:00,86.2,50.2,29.86,SSW,213,6.0,6.9,29,0.00,,,0.00,meteobridge,2013-09-04 19:09:00,
2013-09-04 13:14:00,85.6,50.7,29.86,SW,232,2.9,6.0,30,0.00,,,0.00,meteobridge,2013-09-04 19:14:00,
2013-09-04 13:19:00,86.0,49.1,29.86,SSE,168,4.9,6.9,28,0.00,,,0.00,meteobridge,2013-09-04 19:19:00,
2013-09-04 13:24:00,86.4,50.4,29.86,SSE,167,2.0,4.0,29,0.00,,,0.00,meteobridge,2013-09-04 19:24:00,
2013-09-04 13:29:00,86.7,48.7,29.86,SW,229,4.9,6.9,27,0.00,,,0.00,meteobridge,2013-09-04 19:29:00,
2013-09-04 13:34:00,86.9,50.9,29.86,South,170,2.0,4.9,29,0.00,,,0.00,meteobridge,2013-09-04 19:34:00,
2013-09-04 13:39:00,86.7,48.7,29.86,WSW,240,4.0,6.9,27,0.00,,,0.00,meteobridge,2013-09-04 19:39:00,
2013-09-04 13:44:00,86.9,49.8,29.85,South,176,0.9,6.9,28,0.00,,,0.00,meteobridge,2013-09-04 19:44:00,
2013-09-04 13:49:00,87.4,49.3,29.85,SW,219,4.9,8.1,27,0.00,,,0.00,meteobridge,2013-09-04 19:49:00,
2013-09-04 13:54:00,87.6,50.5,29.85,West,262,0.0,4.9,28,0.00,,,0.00,meteobridge,2013-09-04 19:54:00,
2013-09-04 13:59:00,88.3,49.1,29.85,SW,229,0.9,4.0,26,0.00,,,0.00,meteobridge,2013-09-04 19:59:00,
2013-09-04 14:04:00,89.2,49.8,29.85,WNW,284,2.0,4.0,26,0.00,,,0.00,meteobridge,2013-09-04 20:04:00,
2013-09-04 14:09:00,89.8,51.3,29.84,SSW,196,0.0,2.0,27,0.00,,,0.00,meteobridge,2013-09-04 20:09:00,
2013-09-04 14:14:00,88.9,50.5,29.84,West,274,0.9,4.0,27,0.00,,,0.00,meteobridge,2013-09-04 20:14:00,
2013-09-04 14:19:00,89.2,49.8,29.84,SW,221,0.9,6.0,26,0.00,,,0.00,meteobridge,2013-09-04 20:19:00,
2013-09-04 14:24:00,89.2,50.9,29.83,WSW,240,2.0,2.9,27,0.00,,,0.00,meteobridge,2013-09-04 20:24:00,
2013-09-04 14:29:00,89.4,48.9,29.83,WNW,296,2.0,4.9,25,0.00,,,0.00,meteobridge,2013-09-04 20:29:00,
2013-09-04 14:34:00,89.2,49.8,29.83,NW,307,2.0,4.0,26,0.00,,,0.00,meteobridge,2013-09-04 20:34:00,
2013-09-04 14:39:00,89.8,48.2,29.83,SW,234,2.0,6.0,24,0.00,,,0.00,meteobridge,2013-09-04 20:39:00,
2013-09-04 14:44:00,89.8,48.2,29.83,SW,234,4.0,8.1,24,0.00,,,0.00,meteobridge,2013-09-04 20:44:00,
2013-09-04 14:49:00,88.5,48.2,29.83,SSW,200,4.0,4.0,25,0.00,,,0.00,meteobridge,2013-09-04 20:49:00,
2013-09-04 14:54:00,88.0,47.8,29.82,South,184,0.0,2.0,25,0.00,,,0.00,meteobridge,2013-09-04 20:54:00,
2013-09-04 14:59:00,89.6,48.0,29.82,East,99,0.9,4.9,24,0.00,,,0.00,meteobridge,2013-09-04 20:59:00,
2013-09-04 15:04:00,89.4,48.9,29.82,North,355,4.0,4.0,25,0.00,,,0.00,meteobridge,2013-09-04 21:04:00,
2013-09-04 15:09:00,90.9,48.0,29.82,North,10,0.9,0.9,23,0.00,,,0.00,meteobridge,2013-09-04 21:09:00,
2013-09-04 15:14:00,90.3,48.6,29.81,NNE,28,2.0,2.9,24,0.00,,,0.00,meteobridge,2013-09-04 21:14:00,
2013-09-04 15:19:00,91.2,49.5,29.81,WSW,256,0.0,2.0,24,0.00,,,0.00,meteobridge,2013-09-04 21:19:00,
2013-09-04 15:24:00,91.0,48.0,29.81,SW,229,0.9,4.9,23,0.00,,,0.00,meteobridge,2013-09-04 21:24:00,
2013-09-04 15:29:00,90.0,48.4,29.81,SSE,158,6.0,6.0,24,0.00,,,0.00,meteobridge,2013-09-04 21:29:00,
2013-09-04 15:34:00,90.3,48.6,29.81,SE,132,0.9,2.0,24,0.00,,,0.00,meteobridge,2013-09-04 21:34:00,
2013-09-04 15:40:00,90.7,50.0,29.81,North,355,0.9,0.9,25,0.00,,,0.00,meteobridge,2013-09-04 21:40:00,
2013-09-04 15:45:00,90.9,49.1,29.80,NNW,333,0.9,0.9,24,0.00,,,0.00,meteobridge,2013-09-04 21:45:00,
2013-09-04 15:50:00,91.0,48.0,29.80,West,280,2.9,6.0,23,0.00,,,0.00,meteobridge,2013-09-04 21:50:00,
2013-09-04 15:55:00,90.7,47.8,29.80,SW,221,4.9,6.9,23,0.00,,,0.00,meteobridge,2013-09-04 21:55:00,
2013-09-04 16:00:00,90.3,49.6,29.80,SW,217,0.9,4.0,25,0.00,,,0.00,meteobridge,2013-09-04 22:00:00,
2013-09-04 16:05:00,90.0,48.4,29.80,SW,227,6.0,6.9,24,0.00,,,0.00,meteobridge,2013-09-04 22:05:00,
2013-09-04 16:10:00,89.4,48.9,29.80,SSW,195,2.9,4.9,25,0.00,,,0.00,meteobridge,2013-09-04 22:10:00,
2013-09-04 16:15:00,89.4,46.8,29.80,East,94,0.0,2.9,23,0.00,,,0.00,meteobridge,2013-09-04 22:15:00,
2013-09-04 16:20:00,90.1,48.6,29.80,SSE,162,2.0,2.9,24,0.00,,,0.00,meteobridge,2013-09-04 22:20:00,
2013-09-04 16:25:00,90.7,48.9,29.79,SSW,199,6.0,6.0,24,0.00,,,0.00,meteobridge,2013-09-04 22:25:00,
2013-09-04 16:30:00,90.5,47.7,29.79,WSW,245,4.0,4.9,23,0.00,,,0.00,meteobridge,2013-09-04 22:30:00,
2013-09-04 16:35:00,90.1,47.3,29.79,WSW,257,2.9,6.0,23,0.00,,,0.00,meteobridge,2013-09-04 22:35:00,
2013-09-04 16:40:00,90.0,46.0,29.79,SSW,200,2.0,4.0,22,0.00,,,0.00,meteobridge,2013-09-04 22:40:00,
2013-09-04 16:46:00,89.8,47.1,29.79,SSW,212,2.0,4.9,23,0.00,,,0.00,meteobridge,2013-09-04 22:46:00,
2013-09-04 16:51:00,90.7,47.8,29.79,SSW,209,2.0,6.0,23,0.00,,,0.00,meteobridge,2013-09-04 22:51:00,
2013-09-04 16:56:00,90.7,47.8,29.79,SSW,208,4.9,4.9,23,0.00,,,0.00,meteobridge,2013-09-04 22:56:00,
2013-09-04 17:01:00,90.1,47.3,29.79,WSW,254,2.0,4.0,23,0.00,,,0.00,meteobridge,2013-09-04 23:01:00,
2013-09-04 17:06:00,90.0,48.4,29.79,SSW,200,0.9,4.9,24,0.00,,,0.00,meteobridge,2013-09-04 23:06:00,
2013-09-04 17:11:00,90.1,47.3,29.79,NW,315,2.0,6.0,23,0.00,,,0.00,meteobridge,2013-09-04 23:11:00,
2013-09-04 17:16:00,90.0,43.5,29.79,SW,219,0.0,2.9,20,0.00,,,0.00,meteobridge,2013-09-04 23:16:00,
2013-09-04 17:21:00,89.6,46.9,29.79,West,263,0.0,2.0,23,0.00,,,0.00,meteobridge,2013-09-04 23:21:00,
2013-09-04 17:26:00,89.8,47.1,29.79,WSW,248,0.9,0.9,23,0.00,,,0.00,meteobridge,2013-09-04 23:26:00,
2013-09-04 17:31:00,89.8,47.1,29.79,SSW,211,2.0,2.9,23,0.00,,,0.00,meteobridge,2013-09-04 23:31:00,
2013-09-04 17:36:00,90.1,46.2,29.78,WSW,254,0.9,2.0,22,0.00,,,0.00,meteobridge,2013-09-04 23:36:00,
2013-09-04 17:41:00,90.3,45.1,29.79,SSW,207,4.0,6.0,21,0.00,,,0.00,meteobridge,2013-09-04 23:41:00,
2013-09-04 17:46:00,89.4,45.5,29.79,WSW,250,0.0,4.0,22,0.00,,,0.00,meteobridge,2013-09-04 23:46:00,
2013-09-04 17:51:00,89.1,45.3,29.79,ENE,69,0.0,2.0,22,0.00,,,0.00,meteobridge,2013-09-04 23:51:00,
2013-09-04 17:56:00,89.8,44.6,29.79,ESE,115,2.0,4.0,21,0.00,,,0.00,meteobridge,2013-09-04 23:56:00,
2013-09-04 18:01:00,90.1,43.7,29.79,NE,41,0.0,2.9,20,0.00,,,0.00,meteobridge,2013-09-05 00:01:00,
2013-09-04 18:06:00,89.8,39.2,29.79,ESE,122,2.9,6.0,17,0.00,,,0.00,meteobridge,2013-09-05 00:06:00,
2013-09-04 18:11:00,89.6,37.4,29.79,ESE,113,4.0,8.1,16,0.00,,,0.00,meteobridge,2013-09-05 00:11:00,
2013-09-04 18:17:00,89.4,38.8,29.79,East,88,2.0,4.9,17,0.00,,,0.00,meteobridge,2013-09-05 00:17:00,
2013-09-04 18:22:00,89.2,38.7,29.79,SE,126,2.9,4.0,17,0.00,,,0.00,meteobridge,2013-09-05 00:22:00,
2013-09-04 18:27:00,89.1,37.0,29.79,SE,128,4.0,6.9,16,0.00,,,0.00,meteobridge,2013-09-05 00:27:00,
2013-09-04 18:32:00,88.7,39.7,29.79,SSE,155,4.0,4.9,18,0.00,,,0.00,meteobridge,2013-09-05 00:32:00,
2013-09-04 18:37:00,88.3,39.4,29.79,ESE,123,2.0,2.9,18,0.00,,,0.00,meteobridge,2013-09-05 00:37:00,
2013-09-04 18:42:00,88.2,39.4,29.79,ESE,117,2.9,6.9,18,0.00,,,0.00,meteobridge,2013-09-05 00:42:00,
2013-09-04 18:47:00,87.6,38.8,29.79,SE,146,6.9,8.1,18,0.00,,,0.00,meteobridge,2013-09-05 00:47:00,
2013-09-04 18:52:00,87.3,38.7,29.79,SE,146,2.9,4.9,18,0.00,,,0.00,meteobridge,2013-09-05 00:52:00,
2013-09-04 18:57:00,86.9,36.9,29.79,ESE,122,2.9,10.1,17,0.00,,,0.00,meteobridge,2013-09-05 00:57:00,
2013-09-04 19:02:00,86.5,36.5,29.79,ESE,110,4.0,8.9,17,0.00,,,0.00,meteobridge,2013-09-05 01:02:00,
2013-09-04 19:07:00,86.4,37.9,29.80,ESE,112,4.0,6.9,18,0.00,,,0.00,meteobridge,2013-09-05 01:07:00,
2013-09-04 19:12:00,85.8,37.4,29.80,SE,130,4.0,10.1,18,0.00,,,0.00,meteobridge,2013-09-05 01:12:00,
2013-09-04 19:17:00,85.6,37.2,29.80,ESE,113,2.0,6.9,18,0.00,,,0.00,meteobridge,2013-09-05 01:17:00,
2013-09-04 19:22:00,85.5,37.0,29.80,SSE,153,4.0,6.9,18,0.00,,,0.00,meteobridge,2013-09-05 01:22:00,
2013-09-04 19:27:00,85.3,38.3,29.80,SE,144,2.0,8.1,19,0.00,,,0.00,meteobridge,2013-09-05 01:27:00,
2013-09-04 19:32:00,84.7,37.9,29.80,ESE,113,4.0,8.1,19,0.00,,,0.00,meteobridge,2013-09-05 01:32:00,
2013-09-04 19:37:00,84.6,37.8,29.81,SSE,148,0.0,8.9,19,0.00,,,0.00,meteobridge,2013-09-05 01:37:00,
2013-09-04 19:42:00,84.0,38.7,29.81,ESE,113,8.1,8.1,20,0.00,,,0.00,meteobridge,2013-09-05 01:42:00,
2013-09-04 19:47:00,83.8,37.2,29.81,SSE,163,2.9,8.1,19,0.00,,,0.00,meteobridge,2013-09-05 01:47:00,
2013-09-04 19:52:00,83.7,38.3,29.81,SE,128,4.9,8.1,20,0.00,,,0.00,meteobridge,2013-09-05 01:52:00,
2013-09-04 19:57:00,83.1,39.2,29.82,SE,127,2.9,8.1,21,0.00,,,0.00,meteobridge,2013-09-05 01:57:00,
2013-09-04 20:02:00,82.9,39.0,29.82,SE,138,4.9,6.9,21,0.00,,,0.00,meteobridge,2013-09-05 02:02:00,
2013-09-04 20:08:00,82.8,38.8,29.83,ESE,107,2.9,4.0,21,0.00,,,0.00,meteobridge,2013-09-05 02:08:00,
2013-09-04 20:13:00,82.6,38.7,29.83,SE,132,2.9,6.0,21,0.00,,,0.00,meteobridge,2013-09-05 02:13:00,
2013-09-04 20:18:00,82.4,39.7,29.83,SE,130,0.0,10.1,22,0.00,,,0.00,meteobridge,2013-09-05 02:18:00,
2013-09-04 20:23:00,82.2,39.6,29.83,ESE,109,4.9,10.1,22,0.00,,,0.00,meteobridge,2013-09-05 02:23:00,
2013-09-04 20:28:00,82.0,39.4,29.83,SE,144,2.9,8.1,22,0.00,,,0.00,meteobridge,2013-09-05 02:28:00,
2013-09-04 20:33:00,82.0,39.4,29.83,SE,128,4.0,10.1,22,0.00,,,0.00,meteobridge,2013-09-05 02:33:00,
2013-09-04 20:38:00,82.0,39.4,29.84,SE,137,2.0,8.1,22,0.00,,,0.00,meteobridge,2013-09-05 02:38:00,
2013-09-04 20:43:00,81.9,40.5,29.85,SE,128,2.9,4.9,23,0.00,,,0.00,meteobridge,2013-09-05 02:43:00,
2013-09-04 20:48:00,81.7,40.3,29.85,ENE,71,8.1,10.1,23,0.00,,,0.00,meteobridge,2013-09-05 02:48:00,
2013-09-04 20:53:00,81.3,39.9,29.85,East,86,2.9,6.0,23,0.00,,,0.00,meteobridge,2013-09-05 02:53:00,
2013-09-04 20:58:00,81.1,39.7,29.85,ESE,105,6.9,8.1,23,0.00,,,0.00,meteobridge,2013-09-05 02:58:00,
2013-09-04 21:03:00,81.1,39.7,29.86,SE,140,4.0,8.9,23,0.00,,,0.00,meteobridge,2013-09-05 03:03:00,
2013-09-04 21:08:00,81.1,39.7,29.86,SSE,160,4.0,8.1,23,0.00,,,0.00,meteobridge,2013-09-05 03:08:00,
2013-09-04 21:13:00,80.8,39.6,29.86,East,101,2.9,6.9,23,0.00,,,0.00,meteobridge,2013-09-05 03:13:00,
2013-09-04 21:18:00,80.6,40.5,29.86,ESE,115,8.1,11.0,24,0.00,,,0.00,meteobridge,2013-09-05 03:18:00,
2013-09-04 21:23:00,80.4,40.3,29.86,SSE,153,2.9,10.1,24,0.00,,,0.00,meteobridge,2013-09-05 03:23:00,
2013-09-04 21:28:00,80.2,39.0,29.86,East,96,2.0,6.0,23,0.00,,,0.00,meteobridge,2013-09-05 03:28:00,
2013-09-04 21:33:00,80.1,38.8,29.87,SE,125,2.9,8.1,23,0.00,,,0.00,meteobridge,2013-09-05 03:33:00,
2013-09-04 21:38:00,80.1,38.8,29.87,SE,145,6.9,6.9,23,0.00,,,0.00,meteobridge,2013-09-05 03:38:00,
2013-09-04 21:43:00,79.7,37.6,29.87,NNW,341,2.0,4.9,22,0.00,,,0.00,meteobridge,2013-09-05 03:43:00,
2013-09-04 21:48:00,79.5,37.4,29.87,ESE,116,4.9,8.1,22,0.00,,,0.00,meteobridge,2013-09-05 03:48:00,
2013-09-04 21:54:00,79.3,37.2,29.88,ESE,107,4.0,6.9,22,0.00,,,0.00,meteobridge,2013-09-05 03:54:00,
2013-09-04 21:59:00,79.2,35.8,29.88,SE,132,2.9,6.0,21,0.00,,,0.00,meteobridge,2013-09-05 03:59:00,
2013-09-04 22:01:00,79.2,35.8,29.88,SE,127,4.0,6.9,21,0.00,,,0.00,meteobridge,2013-09-05 04:01:00,
2013-09-04 22:02:00,79.2,35.8,29.88,ESE,103,2.9,8.1,21,0.00,,,0.00,meteobridge,2013-09-05 04:02:00,
2013-09-04 22:04:00,79.0,35.8,29.88,ESE,107,2.0,4.9,21,0.00,,,0.00,meteobridge,2013-09-05 04:04:00,
2013-09-04 22:09:00,79.0,34.5,29.88,ESE,115,4.0,8.1,20,0.00,,,0.00,meteobridge,2013-09-05 04:09:00,
2013-09-04 22:14:00,79.0,34.5,29.88,SE,131,6.0,8.9,20,0.00,,,0.00,meteobridge,2013-09-05 04:14:00,
2013-09-04 22:19:00,79.0,34.5,29.88,SE,124,2.0,8.1,20,0.00,,,0.00,meteobridge,2013-09-05 04:19:00,
2013-09-04 22:24:00,78.4,34.0,29.88,ESE,117,2.0,6.0,20,0.00,,,0.00,meteobridge,2013-09-05 04:24:00,
2013-09-04 22:29:00,78.1,33.8,29.88,ESE,121,0.0,4.0,20,0.00,,,0.00,meteobridge,2013-09-05 04:29:00,
2013-09-04 22:34:00,77.5,33.3,29.89,ESE,103,0.9,4.9,20,0.00,,,0.00,meteobridge,2013-09-05 04:34:00,
2013-09-04 22:39:00,77.4,34.3,29.89,ESE,119,0.0,0.9,21,0.00,,,0.00,meteobridge,2013-09-05 04:39:00,
2013-09-04 22:44:00,77.2,34.2,29.89,East,90,0.0,4.9,21,0.00,,,0.00,meteobridge,2013-09-05 04:44:00,
2013-09-04 22:49:00,76.8,35.1,29.89,ESE,121,0.9,4.9,22,0.00,,,0.00,meteobridge,2013-09-05 04:49:00,
2013-09-04 22:54:00,76.6,36.1,29.89,ENE,78,0.0,2.0,23,0.00,,,0.00,meteobridge,2013-09-05 04:54:00,
2013-09-04 22:59:00,76.3,36.9,29.89,ESE,108,0.9,2.0,24,0.00,,,0.00,meteobridge,2013-09-05 04:59:00,
2013-09-04 23:05:00,75.9,36.5,29.89,NE,53,0.0,0.9,24,0.00,,,0.00,meteobridge,2013-09-05 05:05:00,
2013-09-04 23:10:00,75.6,37.2,29.89,ENE,77,0.0,2.0,25,0.00,,,0.00,meteobridge,2013-09-05 05:10:00,
2013-09-04 23:15:00,75.4,37.0,29.89,East,80,0.0,2.9,25,0.00,,,0.00,meteobridge,2013-09-05 05:15:00,
2013-09-04 23:20:00,75.0,37.8,29.89,ENE,78,2.0,2.9,26,0.00,,,0.00,meteobridge,2013-09-05 05:20:00,
2013-09-04 23:25:00,74.8,37.6,29.89,ESE,122,0.9,4.9,26,0.00,,,0.00,meteobridge,2013-09-05 05:25:00,
2013-09-04 23:30:00,75.2,37.9,29.89,ENE,76,0.0,6.0,26,0.00,,,0.00,meteobridge,2013-09-05 05:30:00,
2013-09-04 23:35:00,75.4,37.0,29.89,SE,140,0.9,2.9,25,0.00,,,0.00,meteobridge,2013-09-05 05:35:00,
2013-09-04 23:40:00,75.6,37.2,29.89,SE,130,4.0,6.9,25,0.00,,,0.00,meteobridge,2013-09-05 05:40:00,
2013-09-04 23:45:00,75.6,37.2,29.89,SSE,152,6.0,8.1,25,0.00,,,0.00,meteobridge,2013-09-05 05:45:00,
2013-09-04 23:50:00,75.6,37.2,29.89,ESE,103,6.9,8.1,25,0.00,,,0.00,meteobridge,2013-09-05 05:50:00,
2013-09-04 23:55:00,75.6,37.2,29.89,SE,126,0.9,6.9,25,0.00,,,0.00,meteobridge,2013-09-05 05:55:00,